createdAt,value
2023-04-27T00:02:45.862Z,0.80
2023-04-27T00:05:32.756Z,0.78
2023-04-27T00:08:12.713Z,0.77
2023-04-27T00:12:02.738Z,0.74
2023-04-27T00:14:49.708Z,0.68
2023-04-27T00:17:22.990Z,0.63
2023-04-27T00:20:11.736Z,0.59
2023-04-27T00:22:52.731Z,0.61
2023-04-27T00:25:46.699Z,0.61
2023-04-27T00:28:33.693Z,0.58
2023-04-27T00:31:13.720Z,0.54
2023-04-27T00:34:00.722Z,0.54
2023-04-27T00:36:33.818Z,0.52
2023-04-27T00:39:20.697Z,0.50
2023-04-27T00:41:53.931Z,0.50
2023-04-27T00:44:40.739Z,0.49
2023-04-27T00:47:13.884Z,0.45
2023-04-27T00:50:00.681Z,0.45
2023-04-27T00:52:33.810Z,0.43
2023-04-27T00:55:20.708Z,0.44
2023-04-27T00:58:00.711Z,0.37
2023-04-27T01:00:54.794Z,0.34
2023-04-27T01:03:41.880Z,0.32
2023-04-27T01:06:14.863Z,0.27
2023-04-27T01:09:01.661Z,0.23
2023-04-27T01:11:34.887Z,0.20
2023-04-27T01:14:21.726Z,0.22
2023-04-27T01:17:01.855Z,0.18
2023-04-27T01:19:48.749Z,0.16
2023-04-27T01:22:21.824Z,0.18
2023-04-27T01:25:08.765Z,0.16
2023-04-27T01:27:41.824Z,0.15
2023-04-27T01:30:31.708Z,0.13
2023-04-27T01:33:11.777Z,0.10
2023-04-27T01:36:05.762Z,0.07
2023-04-27T01:38:59.705Z,0.04
2023-04-27T01:41:53.705Z,-0.01
2023-04-27T01:44:47.776Z,-0.04
2023-04-27T01:47:41.808Z,-0.02
2023-04-27T01:50:35.730Z,0.00
2023-04-27T01:53:31.827Z,0.04
2023-04-27T01:56:25.758Z,0.01
2023-04-27T01:59:19.722Z,-0.04
2023-04-27T02:02:13.786Z,-0.02
2023-04-27T02:05:00.738Z,0.07
2023-04-27T02:07:40.748Z,0.09
2023-04-27T02:10:34.765Z,0.16
2023-04-27T02:13:28.776Z,0.20
2023-04-27T02:16:15.757Z,0.24
2023-04-27T02:18:49.216Z,0.24
2023-04-27T02:21:35.730Z,0.22
2023-04-27T02:24:08.889Z,0.22
2023-04-27T02:26:55.745Z,0.19
2023-04-27T02:29:28.964Z,0.18
2023-04-27T02:32:15.830Z,0.18
2023-04-27T02:34:48.844Z,0.20
2023-04-27T02:37:35.755Z,0.17
2023-04-27T02:40:09.324Z,0.11
2023-04-27T02:43:02.736Z,0.11
2023-04-27T02:45:56.740Z,0.08
2023-04-27T02:48:43.780Z,0.04
2023-04-27T02:51:16.882Z,0.02
2023-04-27T02:54:03.753Z,0.00
2023-04-27T02:56:37.959Z,-0.03
2023-04-27T02:59:24.759Z,-0.07
2023-04-27T03:02:04.725Z,-0.11
2023-04-27T03:04:59.754Z,-0.13
2023-04-27T03:07:46.736Z,-0.18
2023-04-27T03:10:26.796Z,-0.23
2023-04-27T03:13:13.767Z,-0.27
2023-04-27T03:15:53.752Z,-0.31
2023-04-27T03:18:40.769Z,-0.28
2023-04-27T03:21:18.892Z,-0.26
2023-04-27T03:24:05.752Z,-0.24
2023-04-27T03:26:45.745Z,-0.26
2023-04-27T03:29:32.782Z,-0.29
2023-04-27T03:32:12.837Z,-0.36
2023-04-27T03:35:06.736Z,-0.39
2023-04-27T03:38:00.744Z,-0.42
2023-04-27T03:40:47.759Z,-0.43
2023-04-27T03:43:20.988Z,-0.42
2023-04-27T03:46:07.822Z,-0.40
2023-04-27T03:48:41.132Z,-0.45
2023-04-27T03:51:27.759Z,-0.43
2023-04-27T03:54:00.866Z,-0.42
2023-04-27T03:56:47.757Z,-0.41
2023-04-27T03:59:24.238Z,-0.36
2023-04-27T04:02:11.911Z,-0.34
2023-04-27T04:04:45.064Z,-0.31
2023-04-27T04:07:31.800Z,-0.33
2023-04-27T04:10:04.894Z,-0.31
2023-04-27T04:12:51.746Z,-0.28
2023-04-27T04:15:24.975Z,-0.26
2023-04-27T04:18:11.777Z,-0.27
2023-04-27T04:20:44.907Z,-0.22
2023-04-27T04:23:31.787Z,-0.16
2023-04-27T04:26:04.928Z,-0.13
2023-04-27T04:28:51.765Z,-0.12
2023-04-27T04:31:31.856Z,-0.11
2023-04-27T04:34:18.780Z,-0.14
2023-04-27T04:36:51.964Z,-0.13
2023-04-27T04:39:39.761Z,-0.09
2023-04-27T04:42:12.874Z,-0.08
2023-04-27T04:45:06.774Z,-0.07
2023-04-27T04:47:53.837Z,-0.06
2023-04-27T04:50:33.794Z,0.00
2023-04-27T04:53:20.799Z,0.08
2023-04-27T04:56:00.778Z,0.13
2023-04-27T04:58:54.774Z,0.20
2023-04-27T05:01:41.804Z,0.22
2023-04-27T05:04:21.981Z,0.27
2023-04-27T05:07:08.796Z,0.28
2023-04-27T05:09:44.957Z,0.45
2023-04-27T05:12:31.766Z,0.69
2023-04-27T05:15:04.906Z,0.77
2023-04-27T05:17:51.811Z,0.86
2023-04-27T05:20:31.806Z,0.90
2023-04-27T05:23:18.850Z,0.94
2023-04-27T05:25:51.866Z,0.99
2023-04-27T05:28:38.805Z,1.02
2023-04-27T05:31:18.853Z,1.03
2023-04-27T05:34:12.780Z,1.20
2023-04-27T05:37:06.801Z,1.46
2023-04-27T05:39:53.814Z,1.78
2023-04-27T05:42:26.889Z,2.07
2023-04-27T05:45:17.779Z,2.39
2023-04-27T05:47:50.950Z,2.69
2023-04-27T05:50:37.830Z,3.00
2023-04-27T05:53:11.263Z,3.17
2023-04-27T05:55:57.795Z,3.51
2023-04-27T05:58:37.820Z,3.79
2023-04-27T06:01:24.810Z,4.00
2023-04-27T06:04:07.897Z,4.28
2023-04-27T06:07:01.817Z,4.61
2023-04-27T06:09:48.799Z,5.03
2023-04-27T06:12:21.982Z,5.10
2023-04-27T06:15:14.800Z,5.15
2023-04-27T06:17:57.876Z,5.20
2023-04-27T06:20:51.822Z,5.28
2023-04-27T06:23:45.793Z,5.33
2023-04-27T06:26:39.813Z,5.47
2023-04-27T06:29:26.820Z,5.79
2023-04-27T06:32:06.929Z,6.09
2023-04-27T06:35:00.809Z,6.46
2023-04-27T06:37:47.819Z,6.89
2023-04-27T06:40:20.978Z,7.22
2023-04-27T06:43:07.818Z,7.50
2023-04-27T06:45:41.100Z,7.69
2023-04-27T06:48:27.825Z,8.02
2023-04-27T06:51:07.861Z,8.26
2023-04-27T06:54:03.811Z,8.65
2023-04-27T06:56:51.823Z,8.88
2023-04-27T06:59:31.815Z,9.18
2023-04-27T07:02:25.901Z,9.34
2023-04-27T07:05:12.830Z,9.44
2023-04-27T07:07:52.852Z,9.68
2023-04-27T07:10:46.842Z,10.09
2023-04-27T07:13:40.834Z,10.39
2023-04-27T07:16:27.863Z,10.63
2023-04-27T07:19:07.904Z,10.83
2023-04-27T07:22:01.839Z,10.99
2023-04-27T07:24:48.840Z,10.70
2023-04-27T07:27:22.361Z,10.55
2023-04-27T07:30:08.875Z,10.42
2023-04-27T07:32:54.068Z,10.11
2023-04-27T07:35:40.901Z,9.60
2023-04-27T07:38:17.568Z,9.19
2023-04-27T07:41:10.843Z,8.91
2023-04-27T07:43:43.964Z,8.73
2023-04-27T07:46:30.838Z,8.56
2023-04-27T07:49:04.053Z,8.36
2023-04-27T07:51:50.854Z,8.30
2023-04-27T07:54:30.841Z,8.20
2023-04-27T07:57:24.866Z,8.03
2023-04-27T08:00:15.864Z,7.92
2023-04-27T08:02:49.191Z,7.67
2023-04-27T08:05:36.110Z,8.08
2023-04-27T08:08:10.087Z,8.63
2023-04-27T08:10:56.866Z,9.47
2023-04-27T08:13:36.855Z,10.09
2023-04-27T08:16:30.888Z,10.60
2023-04-27T08:19:24.870Z,11.13
2023-04-27T08:22:18.874Z,11.61
2023-04-27T08:25:06.960Z,12.24
2023-04-27T08:27:49.863Z,12.20
2023-04-27T08:30:43.878Z,12.11
2023-04-27T08:33:37.842Z,11.73
2023-04-27T08:36:25.878Z,11.18
2023-04-27T08:38:58.989Z,10.81
2023-04-27T08:41:48.905Z,10.48
2023-04-27T08:44:29.917Z,10.18
2023-04-27T08:47:31.349Z,9.74
2023-04-27T08:50:26.886Z,9.34
2023-04-27T08:53:00.006Z,8.86
2023-04-27T08:55:46.881Z,8.56
2023-04-27T08:58:20.151Z,8.10
2023-04-27T09:01:12.891Z,8.01
2023-04-27T09:03:53.031Z,8.18
2023-04-27T09:06:40.867Z,8.20
2023-04-27T09:09:14.216Z,8.13
2023-04-27T09:12:00.884Z,8.03
2023-04-27T09:14:43.928Z,8.09
2023-04-27T09:17:42.024Z,8.18
2023-04-27T09:20:28.931Z,8.28
2023-04-27T09:23:05.078Z,8.69
2023-04-27T09:25:51.890Z,9.47
2023-04-27T09:28:25.003Z,10.25
2023-04-27T09:31:11.931Z,10.87
2023-04-27T09:33:45.765Z,11.38
2023-04-27T09:36:32.887Z,11.74
2023-04-27T09:39:11.802Z,12.25
2023-04-27T09:41:58.916Z,12.76
2023-04-27T09:44:35.057Z,12.73
2023-04-27T09:47:21.947Z,12.15
2023-04-27T09:50:02.908Z,11.59
2023-04-27T09:52:56.907Z,10.93
2023-04-27T09:55:52.918Z,10.65
2023-04-27T09:59:00.660Z,10.39
2023-04-27T10:01:50.057Z,10.04
2023-04-27T10:04:42.519Z,9.87
2023-04-27T10:07:33.084Z,9.44
2023-04-27T10:10:16.939Z,9.15
2023-04-27T10:13:14.925Z,8.73
2023-04-27T10:16:01.925Z,8.58
2023-04-27T10:18:40.998Z,8.53
2023-04-27T10:21:28.924Z,8.59
2023-04-27T10:24:13.993Z,8.52
2023-04-27T10:27:09.942Z,8.59
2023-04-27T10:29:51.035Z,8.38
2023-04-27T10:32:38.035Z,8.63
2023-04-27T10:35:19.938Z,9.01
2023-04-27T10:38:24.255Z,9.45
2023-04-27T10:41:13.956Z,10.06
2023-04-27T10:43:53.917Z,10.78
2023-04-27T10:46:48.954Z,10.86
2023-04-27T10:49:36.954Z,10.55
2023-04-27T10:52:16.956Z,10.32
2023-04-27T10:55:03.933Z,10.23
2023-04-27T10:57:37.280Z,10.19
2023-04-27T11:00:35.945Z,10.17
2023-04-27T11:03:27.181Z,10.20
2023-04-27T11:06:13.984Z,10.24
2023-04-27T11:08:51.197Z,10.76
2023-04-27T11:11:37.992Z,10.94
2023-04-27T11:14:11.131Z,10.63
2023-04-27T11:16:58.955Z,10.53
2023-04-27T11:19:39.262Z,10.29
2023-04-27T11:22:25.968Z,10.21
2023-04-27T11:25:06.960Z,10.13
2023-04-27T11:28:00.948Z,9.91
2023-04-27T11:30:55.958Z,9.79
2023-04-27T11:33:42.949Z,9.64
2023-04-27T11:36:30.958Z,9.55
2023-04-27T11:39:28.155Z,9.43
2023-04-27T11:42:02.802Z,9.38
2023-04-27T11:44:49.963Z,9.34
2023-04-27T11:47:24.211Z,9.37
2023-04-27T11:50:13.981Z,9.29
2023-04-27T11:52:53.949Z,9.25
2023-04-27T11:55:52.004Z,9.28
2023-04-27T11:58:44.416Z,9.15
2023-04-27T12:01:37.073Z,9.03
2023-04-27T12:04:32.024Z,8.87
2023-04-27T12:07:19.009Z,8.76
2023-04-27T12:09:52.166Z,8.71
2023-04-27T12:12:40.000Z,8.73
2023-04-27T12:15:20.962Z,8.78
2023-04-27T12:18:14.997Z,8.74
2023-04-27T12:21:08.949Z,8.66
2023-04-27T12:24:03.009Z,8.70
2023-04-27T12:26:56.971Z,8.84
2023-04-27T12:29:50.995Z,8.68
2023-04-27T12:32:45.040Z,8.87
2023-04-27T12:35:38.990Z,9.07
2023-04-27T12:38:26.022Z,9.11
2023-04-27T12:41:06.168Z,9.11
2023-04-27T12:44:00.026Z,8.96
2023-04-27T12:46:55.015Z,8.82
2023-04-27T12:49:49.004Z,8.82
2023-04-27T12:52:35.989Z,8.67
2023-04-27T12:55:17.921Z,8.70
2023-04-27T12:58:10.986Z,8.75
2023-04-27T13:00:44.116Z,8.82
2023-04-27T13:03:31.170Z,8.95
2023-04-27T13:06:10.993Z,8.93
2023-04-27T13:09:04.996Z,8.97
2023-04-27T13:11:52.024Z,9.09
2023-04-27T13:14:25.142Z,9.26
2023-04-27T13:17:12.001Z,9.41
2023-04-27T13:19:52.003Z,9.51
2023-04-27T13:22:39.006Z,9.51
2023-04-27T13:25:13.282Z,9.60
2023-04-27T13:28:01.055Z,9.70
2023-04-27T13:30:42.007Z,9.78
2023-04-27T13:33:36.048Z,9.81
2023-04-27T13:36:23.007Z,9.68
2023-04-27T13:39:02.992Z,9.56
2023-04-27T13:41:50.030Z,9.55
2023-04-27T13:44:37.008Z,9.56
2023-04-27T13:47:24.076Z,9.57
2023-04-27T13:50:04.017Z,9.36
2023-04-27T13:52:51.017Z,9.12
2023-04-27T13:55:24.191Z,9.02
2023-04-27T13:58:12.027Z,8.75
2023-04-27T14:00:54.149Z,8.61
2023-04-27T14:03:49.192Z,8.53
2023-04-27T14:06:36.006Z,8.46
2023-04-27T14:09:16.316Z,8.38
2023-04-27T14:12:10.003Z,8.29
2023-04-27T14:14:58.509Z,8.30
2023-04-27T14:17:32.444Z,8.34
2023-04-27T14:20:19.036Z,8.38
2023-04-27T14:22:59.040Z,8.46
2023-04-27T14:25:53.011Z,8.54
2023-04-27T14:28:40.082Z,8.55
2023-04-27T14:31:14.412Z,8.62
2023-04-27T14:34:03.038Z,8.58
2023-04-27T14:36:36.266Z,8.61
2023-04-27T14:39:23.066Z,8.70
2023-04-27T14:42:03.057Z,8.66
2023-04-27T14:44:57.041Z,8.77
2023-04-27T14:47:44.141Z,8.83
2023-04-27T14:50:25.041Z,8.87
2023-04-27T14:53:19.078Z,8.91
2023-04-27T14:56:13.210Z,8.87
2023-04-27T14:59:04.201Z,8.96
2023-04-27T15:01:44.093Z,8.92
2023-04-27T15:04:31.050Z,8.80
2023-04-27T15:07:04.364Z,8.69
2023-04-27T15:09:53.044Z,8.62
2023-04-27T15:12:26.191Z,8.59
2023-04-27T15:15:14.073Z,8.62
2023-04-27T15:17:48.180Z,8.66
2023-04-27T15:20:35.054Z,8.63
2023-04-27T15:23:08.145Z,8.61
2023-04-27T15:25:56.093Z,8.60
2023-04-27T15:28:30.692Z,8.60
2023-04-27T15:31:17.096Z,8.59
2023-04-27T15:33:50.274Z,8.52
2023-04-27T15:36:37.053Z,8.49
2023-04-27T15:39:10.375Z,8.42
2023-04-27T15:41:57.082Z,8.33
2023-04-27T15:44:31.247Z,8.32
2023-04-27T15:47:20.072Z,8.25
2023-04-27T15:50:00.142Z,8.19
2023-04-27T15:52:47.078Z,8.12
2023-04-27T15:55:27.062Z,8.06
2023-04-27T15:58:21.074Z,8.04
2023-04-27T16:01:08.164Z,8.01
2023-04-27T16:03:41.269Z,8.02
2023-04-27T16:06:28.307Z,8.02
2023-04-27T16:09:03.356Z,8.03
2023-04-27T16:11:50.096Z,8.02
2023-04-27T16:14:23.217Z,8.05
2023-04-27T16:17:13.075Z,8.04
2023-04-27T16:19:46.364Z,8.08
2023-04-27T16:22:34.078Z,8.08
2023-04-27T16:25:10.788Z,8.08
2023-04-27T16:27:58.102Z,8.04
2023-04-27T16:30:31.381Z,8.02
2023-04-27T16:33:18.150Z,8.00
2023-04-27T16:35:51.206Z,7.98
2023-04-27T16:38:39.462Z,7.97
2023-04-27T16:41:20.081Z,7.92
2023-04-27T16:44:14.105Z,7.91
2023-04-27T16:47:08.092Z,7.87
2023-04-27T16:49:55.146Z,7.82
2023-04-27T16:52:35.088Z,7.77
2023-04-27T16:55:23.161Z,7.78
2023-04-27T16:57:57.391Z,7.74
2023-04-27T17:00:46.108Z,7.69
2023-04-27T17:03:19.481Z,7.68
2023-04-27T17:06:07.098Z,7.65
2023-04-27T17:08:40.226Z,7.65
2023-04-27T17:11:27.132Z,7.61
2023-04-27T17:14:00.420Z,7.59
2023-04-27T17:16:47.095Z,7.56
2023-04-27T17:19:27.163Z,7.53
2023-04-27T17:22:21.131Z,7.49
2023-04-27T17:25:08.135Z,7.46
2023-04-27T17:27:51.112Z,7.44
2023-04-27T17:30:40.123Z,7.40
2023-04-27T17:33:21.094Z,7.35
2023-04-27T17:36:08.125Z,7.30
2023-04-27T17:38:41.385Z,7.31
2023-04-27T17:41:28.098Z,7.29
2023-04-27T17:44:01.392Z,7.27
2023-04-27T17:46:56.234Z,7.23
2023-04-27T17:49:36.160Z,7.22
2023-04-27T17:52:30.106Z,7.18
2023-04-27T17:55:24.137Z,7.12
2023-04-27T17:58:18.106Z,7.08
2023-04-27T18:01:12.220Z,7.04
2023-04-27T18:04:07.409Z,6.98
2023-04-27T18:06:58.121Z,6.93
2023-04-27T18:09:39.128Z,6.86
2023-04-27T18:12:33.123Z,6.79
2023-04-27T18:15:23.168Z,6.73
2023-04-27T18:18:03.175Z,6.69
2023-04-27T18:20:58.204Z,6.64
2023-04-27T18:23:46.205Z,6.59
2023-04-27T18:26:19.389Z,6.56
2023-04-27T18:29:06.146Z,6.54
2023-04-27T18:31:40.318Z,6.53
2023-04-27T18:34:27.196Z,6.52
2023-04-27T18:37:00.286Z,6.51
2023-04-27T18:39:48.145Z,6.45
2023-04-27T18:42:28.180Z,6.42
2023-04-27T18:45:22.133Z,6.35
2023-04-27T18:48:16.159Z,6.29
2023-04-27T18:51:10.143Z,6.27
2023-04-27T18:53:57.152Z,6.25
2023-04-27T18:56:38.141Z,6.21
2023-04-27T18:59:32.141Z,6.17
2023-04-27T19:02:20.181Z,6.12
2023-04-27T19:05:11.631Z,6.07
2023-04-27T19:08:07.163Z,6.04
2023-04-27T19:10:54.141Z,6.02
2023-04-27T19:13:28.380Z,5.98
2023-04-27T19:16:16.179Z,5.90
2023-04-27T19:18:56.147Z,5.83
2023-04-27T19:21:50.227Z,5.76
2023-04-27T19:24:37.164Z,5.67
2023-04-27T19:27:11.819Z,5.56
2023-04-27T19:30:01.187Z,5.46
2023-04-27T19:32:43.552Z,5.40
2023-04-27T19:35:30.205Z,5.33
2023-04-27T19:38:03.340Z,5.29
2023-04-27T19:40:50.163Z,5.22
2023-04-27T19:43:23.320Z,5.17
2023-04-27T19:46:10.216Z,5.05
2023-04-27T19:48:44.303Z,4.95
2023-04-27T19:51:31.160Z,4.84
2023-04-27T19:54:07.320Z,4.73
2023-04-27T19:56:55.233Z,4.68
2023-04-27T19:59:29.348Z,4.57
2023-04-27T20:02:16.331Z,4.49
2023-04-27T20:04:56.663Z,4.44
2023-04-27T20:07:50.312Z,4.38
2023-04-27T20:10:37.175Z,4.30
2023-04-27T20:13:10.692Z,4.27
2023-04-27T20:15:59.280Z,4.22
2023-04-27T20:18:32.338Z,4.18
2023-04-27T20:21:21.168Z,4.13
2023-04-27T20:24:02.173Z,4.08
2023-04-27T20:26:50.172Z,3.96
2023-04-27T20:29:25.478Z,3.91
2023-04-27T20:32:12.178Z,3.86
2023-04-27T20:34:45.392Z,3.79
2023-04-27T20:37:32.321Z,3.73
2023-04-27T20:40:05.679Z,3.64
2023-04-27T20:42:52.172Z,3.57
2023-04-27T20:45:41.283Z,3.52
2023-04-27T20:48:36.196Z,3.46
2023-04-27T20:51:30.189Z,3.41
2023-04-27T20:54:18.188Z,3.38
2023-04-27T20:56:58.201Z,3.33
2023-04-27T20:59:55.188Z,3.29
2023-04-27T21:02:44.281Z,3.29
2023-04-27T21:05:24.196Z,3.25
2023-04-27T21:08:11.201Z,3.19
2023-04-27T21:10:51.203Z,3.14
2023-04-27T21:13:41.215Z,3.17
2023-04-27T21:16:21.243Z,3.17
2023-04-27T21:19:15.192Z,3.17
2023-04-27T21:22:04.191Z,3.14
2023-04-27T21:24:44.200Z,3.18
2023-04-27T21:27:38.227Z,3.24
2023-04-27T21:30:25.270Z,3.26
2023-04-27T21:33:05.462Z,3.26
2023-04-27T21:35:52.228Z,3.30
2023-04-27T21:38:32.211Z,3.30
2023-04-27T21:41:19.194Z,3.32
2023-04-27T21:43:52.387Z,3.33
2023-04-27T21:46:39.227Z,3.37
2023-04-27T21:49:12.430Z,3.39
2023-04-27T21:51:59.208Z,3.41
2023-04-27T21:54:32.305Z,3.42
2023-04-27T21:57:20.231Z,3.39
2023-04-27T22:00:00.225Z,3.35
2023-04-27T22:02:55.362Z,3.31
2023-04-27T22:05:44.209Z,3.29
2023-04-27T22:08:24.217Z,3.29
2023-04-27T22:11:18.224Z,3.31
2023-04-27T22:14:12.265Z,3.27
2023-04-27T22:16:59.269Z,3.22
2023-04-27T22:19:40.212Z,3.19
2023-04-27T22:22:34.220Z,3.19
2023-04-27T22:25:28.291Z,3.18
2023-04-27T22:28:23.267Z,3.17
2023-04-27T22:31:17.262Z,3.17
2023-04-27T22:34:04.289Z,3.23
2023-04-27T22:36:37.372Z,3.25
2023-04-27T22:39:27.223Z,3.29
2023-04-27T22:42:00.517Z,3.33
2023-04-27T22:44:47.234Z,3.32
2023-04-27T22:47:20.403Z,3.30
2023-04-27T22:50:08.251Z,3.29
2023-04-27T22:52:44.268Z,3.29
2023-04-27T22:55:31.240Z,3.25
2023-04-27T22:58:11.244Z,3.26
2023-04-27T23:01:01.279Z,3.30
2023-04-27T23:03:41.309Z,3.27
2023-04-27T23:06:35.256Z,3.29
2023-04-27T23:09:29.230Z,3.25
2023-04-27T23:12:23.229Z,3.22
2023-04-27T23:15:10.239Z,3.14
2023-04-27T23:17:50.255Z,3.13
2023-04-27T23:20:37.261Z,3.06
2023-04-27T23:23:17.230Z,3.01
2023-04-27T23:26:11.230Z,2.94
2023-04-27T23:28:58.299Z,2.90
2023-04-27T23:31:38.529Z,2.80
2023-04-27T23:34:32.301Z,2.74
2023-04-27T23:37:26.302Z,2.68
2023-04-27T23:40:21.278Z,2.61
2023-04-27T23:43:15.241Z,2.56
2023-04-27T23:46:12.365Z,2.46
2023-04-27T23:48:59.246Z,2.39
2023-04-27T23:51:39.255Z,2.37
2023-04-27T23:54:33.280Z,2.27
2023-04-27T23:57:21.283Z,2.17
2023-04-27T23:59:54.438Z,2.12
